sensor_id;sensor_type;location;lat;lon;timestamp;temperature;humidity
39525;DHT22;25203;50.754;6.978;2023-01-16T00:00:37;5.30;99.90
39525;DHT22;25203;50.754;6.978;2023-01-16T00:02:38;5.20;99.90
39525;DHT22;25203;50.754;6.978;2023-01-16T00:04:39;5.30;99.90
39525;DHT22;25203;50.754;6.978;2023-01-16T00:06:39;5.20;99.90
39525;DHT22;25203;50.754;6.978;2023-01-16T00:08:42;5.20;99.90
39525;DHT22;25203;50.754;6.978;2023-01-16T00:10:44;5.20;99.90
39525;DHT22;25203;50.754;6.978;2023-01-16T00:12:47;5.20;99.90
39525;DHT22;25203;50.754;6.978;2023-01-16T00:14:48;5.10;99.90
39525;DHT22;25203;50.754;6.978;2023-01-16T00:16:48;5.00;99.90
39525;DHT22;25203;50.754;6.978;2023-01-16T00:18:49;5.00;99.90
39525;DHT22;25203;50.754;6.978;2023-01-16T00:20:50;5.00;99.90
39525;DHT22;25203;50.754;6.978;2023-01-16T00:22:50;4.90;99.90
39525;DHT22;25203;50.754;6.978;2023-01-16T00:24:51;4.90;99.90
39525;DHT22;25203;50.754;6.978;2023-01-16T00:26:52;4.90;99.90
39525;DHT22;25203;50.754;6.978;2023-01-16T00:28:52;4.80;99.90
39525;DHT22;25203;50.754;6.978;2023-01-16T00:30:53;4.70;99.90
39525;DHT22;25203;50.754;6.978;2023-01-16T00:32:54;4.70;99.90
39525;DHT22;25203;50.754;6.978;2023-01-16T00:34:54;4.60;99.90
39525;DHT22;25203;50.754;6.978;2023-01-16T00:36:55;4.60;99.90
39525;DHT22;25203;50.754;6.978;2023-01-16T00:38:55;4.60;99.90
39525;DHT22;25203;50.754;6.978;2023-01-16T00:40:56;4.50;99.90
39525;DHT22;25203;50.754;6.978;2023-01-16T00:42:57;4.50;99.90
39525;DHT22;25203;50.754;6.978;2023-01-16T00:44:57;4.50;99.90
39525;DHT22;25203;50.754;6.978;2023-01-16T00:46:58;4.50;99.90
39525;DHT22;25203;50.754;6.978;2023-01-16T00:48:58;4.50;99.90
39525;DHT22;25203;50.754;6.978;2023-01-16T00:50:59;4.40;99.90
39525;DHT22;25203;50.754;6.978;2023-01-16T00:53:00;4.50;99.90
39525;DHT22;25203;50.754;6.978;2023-01-16T00:55:01;4.50;99.90
39525;DHT22;25203;50.754;6.978;2023-01-16T00:57:01;4.60;99.90
39525;DHT22;25203;50.754;6.978;2023-01-16T00:59:02;4.60;99.90
39525;DHT22;25203;50.754;6.978;2023-01-16T01:01:03;4.70;99.90
39525;DHT22;25203;50.754;6.978;2023-01-16T01:03:04;4.80;99.90
39525;DHT22;25203;50.754;6.978;2023-01-16T01:05:05;4.90;99.90
39525;DHT22;25203;50.754;6.978;2023-01-16T01:07:06;5.00;99.90
39525;DHT22;25203;50.754;6.978;2023-01-16T01:09:07;5.00;99.90
39525;DHT22;25203;50.754;6.978;2023-01-16T01:11:12;5.10;99.90
39525;DHT22;25203;50.754;6.978;2023-01-16T01:13:14;5.10;99.90
39525;DHT22;25203;50.754;6.978;2023-01-16T01:15:14;5.10;99.90
39525;DHT22;25203;50.754;6.978;2023-01-16T01:17:15;5.10;99.90
39525;DHT22;25203;50.754;6.978;2023-01-16T01:19:16;5.10;99.90
39525;DHT22;25203;50.754;6.978;2023-01-16T01:21:16;5.00;99.90
39525;DHT22;25203;50.754;6.978;2023-01-16T01:23:17;4.90;99.90
39525;DHT22;25203;50.754;6.978;2023-01-16T01:25:18;4.90;99.90
39525;DHT22;25203;50.754;6.978;2023-01-16T01:27:18;4.80;99.90
39525;DHT22;25203;50.754;6.978;2023-01-16T01:29:19;4.70;99.90
39525;DHT22;25203;50.754;6.978;2023-01-16T01:31:20;4.70;99.90
39525;DHT22;25203;50.754;6.978;2023-01-16T01:33:20;4.70;99.90
39525;DHT22;25203;50.754;6.978;2023-01-16T01:35:21;4.60;99.90
39525;DHT22;25203;50.754;6.978;2023-01-16T01:37:22;4.60;99.90
39525;DHT22;25203;50.754;6.978;2023-01-16T01:39:22;4.60;99.90
39525;DHT22;25203;50.754;6.978;2023-01-16T01:41:23;4.60;99.90
39525;DHT22;25203;50.754;6.978;2023-01-16T01:45:54;4.50;99.90
39525;DHT22;25203;50.754;6.978;2023-01-16T01:48:20;4.50;99.90
39525;DHT22;25203;50.754;6.978;2023-01-16T01:50:48;4.50;99.90
39525;DHT22;25203;50.754;6.978;2023-01-16T01:52:50;4.50;99.90
39525;DHT22;25203;50.754;6.978;2023-01-16T01:54:56;4.50;99.90
39525;DHT22;25203;50.754;6.978;2023-01-16T01:57:13;4.40;99.90
39525;DHT22;25203;50.754;6.978;2023-01-16T01:59:24;4.40;99.90
39525;DHT22;25203;50.754;6.978;2023-01-16T02:01:27;4.30;99.90
39525;DHT22;25203;50.754;6.978;2023-01-16T02:03:41;4.30;99.90
39525;DHT22;25203;50.754;6.978;2023-01-16T02:05:46;4.30;99.90
39525;DHT22;25203;50.754;6.978;2023-01-16T02:07:49;4.30;99.90
39525;DHT22;25203;50.754;6.978;2023-01-16T02:09:55;4.30;99.90
39525;DHT22;25203;50.754;6.978;2023-01-16T02:12:11;4.30;99.90
39525;DHT22;25203;50.754;6.978;2023-01-16T02:14:15;4.30;99.90
39525;DHT22;25203;50.754;6.978;2023-01-16T02:16:16;4.30;99.90
39525;DHT22;25203;50.754;6.978;2023-01-16T02:18:35;4.30;99.90
39525;DHT22;25203;50.754;6.978;2023-01-16T02:23:47;4.30;99.90
39525;DHT22;25203;50.754;6.978;2023-01-16T02:26:02;4.30;99.90
39525;DHT22;25203;50.754;6.978;2023-01-16T02:30:52;4.30;99.90
39525;DHT22;25203;50.754;6.978;2023-01-16T02:37:54;4.30;99.90
39525;DHT22;25203;50.754;6.978;2023-01-16T02:40:04;4.30;99.90
39525;DHT22;25203;50.754;6.978;2023-01-16T02:47:04;4.20;99.90
39525;DHT22;25203;50.754;6.978;2023-01-16T02:49:30;4.10;99.90
39525;DHT22;25203;50.754;6.978;2023-01-16T02:56:02;3.80;99.90
39525;DHT22;25203;50.754;6.978;2023-01-16T02:58:09;3.80;99.90
39525;DHT22;25203;50.754;6.978;2023-01-16T03:00:13;3.60;99.90
39525;DHT22;25203;50.754;6.978;2023-01-16T03:02:17;3.50;99.90
39525;DHT22;25203;50.754;6.978;2023-01-16T03:09:34;3.10;99.90
39525;DHT22;25203;50.754;6.978;2023-01-16T03:12:00;2.90;99.90
39525;DHT22;25203;50.754;6.978;2023-01-16T03:23:53;2.80;99.90
39525;DHT22;25203;50.754;6.978;2023-01-16T03:30:29;3.00;99.90
39525;DHT22;25203;50.754;6.978;2023-01-16T03:32:39;3.10;99.90
39525;DHT22;25203;50.754;6.978;2023-01-16T03:34:46;3.30;99.90
39525;DHT22;25203;50.754;6.978;2023-01-16T03:39:08;3.70;99.90
39525;DHT22;25203;50.754;6.978;2023-01-16T03:41:11;3.80;99.90
39525;DHT22;25203;50.754;6.978;2023-01-16T03:43:14;3.90;99.90
39525;DHT22;25203;50.754;6.978;2023-01-16T03:45:24;4.10;99.90
39525;DHT22;25203;50.754;6.978;2023-01-16T03:47:31;4.20;99.90
39525;DHT22;25203;50.754;6.978;2023-01-16T03:49:36;4.30;99.90
39525;DHT22;25203;50.754;6.978;2023-01-16T03:51:45;4.30;99.90
39525;DHT22;25203;50.754;6.978;2023-01-16T03:56:31;4.40;99.90
39525;DHT22;25203;50.754;6.978;2023-01-16T03:58:36;4.40;99.90
39525;DHT22;25203;50.754;6.978;2023-01-16T04:01:00;4.40;99.90
39525;DHT22;25203;50.754;6.978;2023-01-16T04:03:07;4.40;99.90
39525;DHT22;25203;50.754;6.978;2023-01-16T04:05:20;4.40;99.90
39525;DHT22;25203;50.754;6.978;2023-01-16T04:07:29;4.40;99.90
39525;DHT22;25203;50.754;6.978;2023-01-16T04:10:06;4.50;99.90
39525;DHT22;25203;50.754;6.978;2023-01-16T04:12:08;4.40;99.90
39525;DHT22;25203;50.754;6.978;2023-01-16T04:14:13;4.30;99.90
39525;DHT22;25203;50.754;6.978;2023-01-16T04:16:15;4.30;99.90
39525;DHT22;25203;50.754;6.978;2023-01-16T04:18:20;4.30;99.90
39525;DHT22;25203;50.754;6.978;2023-01-16T04:20:23;4.30;99.90
39525;DHT22;25203;50.754;6.978;2023-01-16T04:22:27;4.30;99.90
39525;DHT22;25203;50.754;6.978;2023-01-16T04:24:28;4.30;99.90
39525;DHT22;25203;50.754;6.978;2023-01-16T04:26:29;4.40;99.90
39525;DHT22;25203;50.754;6.978;2023-01-16T04:28:29;4.30;99.90
39525;DHT22;25203;50.754;6.978;2023-01-16T04:30:30;4.40;99.90
39525;DHT22;25203;50.754;6.978;2023-01-16T04:32:30;4.40;99.90
39525;DHT22;25203;50.754;6.978;2023-01-16T04:34:31;4.50;99.90
39525;DHT22;25203;50.754;6.978;2023-01-16T04:36:32;4.50;99.90
39525;DHT22;25203;50.754;6.978;2023-01-16T04:38:32;4.60;99.90
39525;DHT22;25203;50.754;6.978;2023-01-16T04:40:33;4.50;99.90
39525;DHT22;25203;50.754;6.978;2023-01-16T04:42:34;4.50;99.90
39525;DHT22;25203;50.754;6.978;2023-01-16T04:44:34;4.50;99.90
39525;DHT22;25203;50.754;6.978;2023-01-16T04:46:35;4.50;99.90
39525;DHT22;25203;50.754;6.978;2023-01-16T04:48:38;4.50;99.90
39525;DHT22;25203;50.754;6.978;2023-01-16T04:50:38;4.60;99.90
39525;DHT22;25203;50.754;6.978;2023-01-16T04:52:40;4.60;99.90
39525;DHT22;25203;50.754;6.978;2023-01-16T04:54:41;4.70;99.90
39525;DHT22;25203;50.754;6.978;2023-01-16T04:56:41;4.70;99.90
39525;DHT22;25203;50.754;6.978;2023-01-16T04:58:42;4.70;99.90
39525;DHT22;25203;50.754;6.978;2023-01-16T05:00:43;4.80;99.90
39525;DHT22;25203;50.754;6.978;2023-01-16T05:02:43;4.90;99.90
39525;DHT22;25203;50.754;6.978;2023-01-16T05:04:44;4.90;99.90
39525;DHT22;25203;50.754;6.978;2023-01-16T05:06:44;4.90;99.90
39525;DHT22;25203;50.754;6.978;2023-01-16T05:08:45;5.00;99.90
39525;DHT22;25203;50.754;6.978;2023-01-16T05:10:46;5.10;99.90
39525;DHT22;25203;50.754;6.978;2023-01-16T05:12:47;5.10;99.90
39525;DHT22;25203;50.754;6.978;2023-01-16T05:14:47;5.10;99.90
39525;DHT22;25203;50.754;6.978;2023-01-16T05:16:48;5.10;99.90
39525;DHT22;25203;50.754;6.978;2023-01-16T05:18:48;5.10;99.90
39525;DHT22;25203;50.754;6.978;2023-01-16T05:20:49;5.20;99.90
39525;DHT22;25203;50.754;6.978;2023-01-16T05:22:50;5.20;99.90
39525;DHT22;25203;50.754;6.978;2023-01-16T05:24:50;5.20;99.90
39525;DHT22;25203;50.754;6.978;2023-01-16T05:26:51;5.30;99.90
39525;DHT22;25203;50.754;6.978;2023-01-16T05:28:51;5.20;99.90
39525;DHT22;25203;50.754;6.978;2023-01-16T05:30:52;5.20;99.90
39525;DHT22;25203;50.754;6.978;2023-01-16T05:32:53;5.20;99.90
39525;DHT22;25203;50.754;6.978;2023-01-16T05:34:53;5.20;99.90
39525;DHT22;25203;50.754;6.978;2023-01-16T05:36:54;5.10;99.90
39525;DHT22;25203;50.754;6.978;2023-01-16T05:38:54;5.20;99.90
39525;DHT22;25203;50.754;6.978;2023-01-16T05:40:55;5.10;99.90
39525;DHT22;25203;50.754;6.978;2023-01-16T05:42:55;5.10;99.90
39525;DHT22;25203;50.754;6.978;2023-01-16T05:44:56;5.10;99.90
39525;DHT22;25203;50.754;6.978;2023-01-16T05:46:56;5.00;99.90
39525;DHT22;25203;50.754;6.978;2023-01-16T05:48:57;5.10;99.90
39525;DHT22;25203;50.754;6.978;2023-01-16T05:51:00;5.10;99.90
39525;DHT22;25203;50.754;6.978;2023-01-16T05:53:01;5.20;99.90
39525;DHT22;25203;50.754;6.978;2023-01-16T05:55:01;5.20;99.90
39525;DHT22;25203;50.754;6.978;2023-01-16T05:57:02;5.20;99.90
39525;DHT22;25203;50.754;6.978;2023-01-16T05:59:03;5.30;99.90
39525;DHT22;25203;50.754;6.978;2023-01-16T06:01:04;5.30;99.90
39525;DHT22;25203;50.754;6.978;2023-01-16T06:03:05;5.30;99.90
39525;DHT22;25203;50.754;6.978;2023-01-16T06:05:06;5.30;99.90
39525;DHT22;25203;50.754;6.978;2023-01-16T06:07:07;5.30;99.90
39525;DHT22;25203;50.754;6.978;2023-01-16T06:09:07;5.40;99.90
39525;DHT22;25203;50.754;6.978;2023-01-16T06:11:08;5.40;99.90
39525;DHT22;25203;50.754;6.978;2023-01-16T06:13:09;5.50;99.90
39525;DHT22;25203;50.754;6.978;2023-01-16T06:15:09;5.60;99.90
39525;DHT22;25203;50.754;6.978;2023-01-16T06:17:11;5.50;99.90
39525;DHT22;25203;50.754;6.978;2023-01-16T06:19:14;5.50;99.90
39525;DHT22;25203;50.754;6.978;2023-01-16T06:21:15;5.60;99.90
39525;DHT22;25203;50.754;6.978;2023-01-16T06:23:15;5.60;99.90
39525;DHT22;25203;50.754;6.978;2023-01-16T06:25:16;5.60;99.90
39525;DHT22;25203;50.754;6.978;2023-01-16T06:27:16;5.60;99.90
39525;DHT22;25203;50.754;6.978;2023-01-16T06:29:17;5.70;99.90
39525;DHT22;25203;50.754;6.978;2023-01-16T06:31:18;5.60;99.90
39525;DHT22;25203;50.754;6.978;2023-01-16T06:33:18;5.70;99.90
39525;DHT22;25203;50.754;6.978;2023-01-16T06:35:19;5.70;99.90
39525;DHT22;25203;50.754;6.978;2023-01-16T06:37:19;5.60;99.90
39525;DHT22;25203;50.754;6.978;2023-01-16T06:39:20;5.60;99.90
39525;DHT22;25203;50.754;6.978;2023-01-16T06:41:21;5.50;99.90
39525;DHT22;25203;50.754;6.978;2023-01-16T06:43:28;5.50;99.90
39525;DHT22;25203;50.754;6.978;2023-01-16T06:45:28;5.50;99.90
39525;DHT22;25203;50.754;6.978;2023-01-16T06:47:29;5.50;99.90
39525;DHT22;25203;50.754;6.978;2023-01-16T06:49:31;5.50;99.90
39525;DHT22;25203;50.754;6.978;2023-01-16T06:51:32;5.50;99.90
39525;DHT22;25203;50.754;6.978;2023-01-16T06:53:32;5.50;99.90
39525;DHT22;25203;50.754;6.978;2023-01-16T06:55:33;5.50;99.90
39525;DHT22;25203;50.754;6.978;2023-01-16T06:57:35;5.60;99.90
39525;DHT22;25203;50.754;6.978;2023-01-16T06:59:36;5.60;99.90
39525;DHT22;25203;50.754;6.978;2023-01-16T07:01:37;5.50;99.90
39525;DHT22;25203;50.754;6.978;2023-01-16T07:03:37;5.60;99.90
39525;DHT22;25203;50.754;6.978;2023-01-16T07:05:38;5.60;99.90
39525;DHT22;25203;50.754;6.978;2023-01-16T07:07:39;5.50;99.90
39525;DHT22;25203;50.754;6.978;2023-01-16T07:09:39;5.50;99.90
39525;DHT22;25203;50.754;6.978;2023-01-16T07:11:40;5.50;99.90
39525;DHT22;25203;50.754;6.978;2023-01-16T07:13:40;5.50;99.90
39525;DHT22;25203;50.754;6.978;2023-01-16T07:15:46;5.40;99.90
39525;DHT22;25203;50.754;6.978;2023-01-16T07:18:11;5.40;99.90
39525;DHT22;25203;50.754;6.978;2023-01-16T07:20:31;5.40;99.90
39525;DHT22;25203;50.754;6.978;2023-01-16T07:22:50;5.30;99.90
39525;DHT22;25203;50.754;6.978;2023-01-16T07:24:51;5.30;99.90
39525;DHT22;25203;50.754;6.978;2023-01-16T07:26:56;5.20;99.90
39525;DHT22;25203;50.754;6.978;2023-01-16T07:29:00;5.20;99.90
39525;DHT22;25203;50.754;6.978;2023-01-16T07:31:03;5.10;99.90
39525;DHT22;25203;50.754;6.978;2023-01-16T07:33:05;5.10;99.90
39525;DHT22;25203;50.754;6.978;2023-01-16T07:35:06;5.10;99.90
39525;DHT22;25203;50.754;6.978;2023-01-16T07:37:07;5.10;99.90
39525;DHT22;25203;50.754;6.978;2023-01-16T07:39:10;5.00;99.90
39525;DHT22;25203;50.754;6.978;2023-01-16T07:41:11;5.00;99.90
39525;DHT22;25203;50.754;6.978;2023-01-16T07:43:11;4.90;99.90
39525;DHT22;25203;50.754;6.978;2023-01-16T07:45:12;4.90;99.90
39525;DHT22;25203;50.754;6.978;2023-01-16T07:47:12;4.80;99.90
39525;DHT22;25203;50.754;6.978;2023-01-16T07:49:13;4.80;99.90
39525;DHT22;25203;50.754;6.978;2023-01-16T07:51:14;4.70;99.90
39525;DHT22;25203;50.754;6.978;2023-01-16T07:53:14;4.60;99.90
39525;DHT22;25203;50.754;6.978;2023-01-16T07:55:15;4.60;99.90
39525;DHT22;25203;50.754;6.978;2023-01-16T07:57:17;4.50;99.90
39525;DHT22;25203;50.754;6.978;2023-01-16T07:59:17;4.50;99.90
39525;DHT22;25203;50.754;6.978;2023-01-16T08:01:18;4.50;99.90
39525;DHT22;25203;50.754;6.978;2023-01-16T08:03:18;4.40;99.90
39525;DHT22;25203;50.754;6.978;2023-01-16T08:05:19;4.40;99.90
39525;DHT22;25203;50.754;6.978;2023-01-16T08:07:20;4.40;99.90
39525;DHT22;25203;50.754;6.978;2023-01-16T08:09:20;4.40;99.90
39525;DHT22;25203;50.754;6.978;2023-01-16T08:11:21;4.30;99.90
39525;DHT22;25203;50.754;6.978;2023-01-16T08:13:36;4.30;99.90
39525;DHT22;25203;50.754;6.978;2023-01-16T08:15:41;4.40;99.90
39525;DHT22;25203;50.754;6.978;2023-01-16T08:17:41;4.40;99.90
39525;DHT22;25203;50.754;6.978;2023-01-16T08:19:42;4.40;99.90
39525;DHT22;25203;50.754;6.978;2023-01-16T08:21:43;4.40;99.90
39525;DHT22;25203;50.754;6.978;2023-01-16T08:23:44;4.40;99.90
39525;DHT22;25203;50.754;6.978;2023-01-16T08:25:44;4.30;99.90
39525;DHT22;25203;50.754;6.978;2023-01-16T08:27:49;4.40;99.90
39525;DHT22;25203;50.754;6.978;2023-01-16T08:29:50;4.30;99.90
39525;DHT22;25203;50.754;6.978;2023-01-16T08:31:50;4.30;99.90
39525;DHT22;25203;50.754;6.978;2023-01-16T08:33:51;4.30;99.90
39525;DHT22;25203;50.754;6.978;2023-01-16T08:35:51;4.30;99.90
39525;DHT22;25203;50.754;6.978;2023-01-16T08:37:52;4.30;99.90
39525;DHT22;25203;50.754;6.978;2023-01-16T08:39:53;4.30;99.90
39525;DHT22;25203;50.754;6.978;2023-01-16T08:41:53;4.30;99.90
39525;DHT22;25203;50.754;6.978;2023-01-16T08:44:13;4.20;99.90
39525;DHT22;25203;50.754;6.978;2023-01-16T08:46:32;4.20;99.90
39525;DHT22;25203;50.754;6.978;2023-01-16T08:48:51;4.20;99.90
39525;DHT22;25203;50.754;6.978;2023-01-16T08:51:16;4.20;99.90
39525;DHT22;25203;50.754;6.978;2023-01-16T08:53:22;4.20;99.90
39525;DHT22;25203;50.754;6.978;2023-01-16T08:55:23;4.20;99.90
39525;DHT22;25203;50.754;6.978;2023-01-16T08:57:24;4.20;99.90
39525;DHT22;25203;50.754;6.978;2023-01-16T08:59:25;4.20;99.90
39525;DHT22;25203;50.754;6.978;2023-01-16T09:01:26;4.20;99.90
39525;DHT22;25203;50.754;6.978;2023-01-16T09:03:26;4.20;99.90
39525;DHT22;25203;50.754;6.978;2023-01-16T09:05:28;4.30;99.90
39525;DHT22;25203;50.754;6.978;2023-01-16T09:07:29;4.30;99.90
39525;DHT22;25203;50.754;6.978;2023-01-16T09:09:29;4.30;99.90
39525;DHT22;25203;50.754;6.978;2023-01-16T09:11:31;4.30;99.90
39525;DHT22;25203;50.754;6.978;2023-01-16T09:13:50;4.30;99.90
39525;DHT22;25203;50.754;6.978;2023-01-16T09:15:50;4.20;99.90
39525;DHT22;25203;50.754;6.978;2023-01-16T09:17:51;4.20;99.90
39525;DHT22;25203;50.754;6.978;2023-01-16T09:19:52;4.20;99.90
39525;DHT22;25203;50.754;6.978;2023-01-16T09:21:53;4.20;99.90
39525;DHT22;25203;50.754;6.978;2023-01-16T09:23:53;4.20;99.90
39525;DHT22;25203;50.754;6.978;2023-01-16T09:25:54;4.20;99.90
39525;DHT22;25203;50.754;6.978;2023-01-16T09:27:55;4.20;99.90
39525;DHT22;25203;50.754;6.978;2023-01-16T09:29:55;4.20;99.90
39525;DHT22;25203;50.754;6.978;2023-01-16T09:31:56;4.20;99.90
39525;DHT22;25203;50.754;6.978;2023-01-16T09:33:57;4.20;99.90
39525;DHT22;25203;50.754;6.978;2023-01-16T09:35:58;4.30;99.90
39525;DHT22;25203;50.754;6.978;2023-01-16T09:37:59;4.30;99.90
39525;DHT22;25203;50.754;6.978;2023-01-16T09:39:59;4.30;99.90
39525;DHT22;25203;50.754;6.978;2023-01-16T09:44:43;4.40;99.90
39525;DHT22;25203;50.754;6.978;2023-01-16T09:46:48;4.40;99.90
39525;DHT22;25203;50.754;6.978;2023-01-16T09:49:01;4.40;99.90
39525;DHT22;25203;50.754;6.978;2023-01-16T09:51:14;4.40;99.90
39525;DHT22;25203;50.754;6.978;2023-01-16T09:53:40;4.40;99.90
39525;DHT22;25203;50.754;6.978;2023-01-16T09:56:01;4.50;99.90
39525;DHT22;25203;50.754;6.978;2023-01-16T09:58:21;4.60;99.90
39525;DHT22;25203;50.754;6.978;2023-01-16T10:00:38;4.60;99.90
39525;DHT22;25203;50.754;6.978;2023-01-16T10:02:39;4.70;99.90
39525;DHT22;25203;50.754;6.978;2023-01-16T10:04:42;4.80;99.90
39525;DHT22;25203;50.754;6.978;2023-01-16T10:06:51;4.80;99.90
39525;DHT22;25203;50.754;6.978;2023-01-16T10:11:40;4.90;99.90
39525;DHT22;25203;50.754;6.978;2023-01-16T10:20:54;4.90;99.90
39525;DHT22;25203;50.754;6.978;2023-01-16T10:25:29;5.00;99.90
39525;DHT22;25203;50.754;6.978;2023-01-16T10:32:19;5.00;99.90
39525;DHT22;25203;50.754;6.978;2023-01-16T10:34:33;5.00;99.90
39525;DHT22;25203;50.754;6.978;2023-01-16T10:36:39;5.00;99.90
39525;DHT22;25203;50.754;6.978;2023-01-16T10:38:45;5.00;99.90
39525;DHT22;25203;50.754;6.978;2023-01-16T10:40:49;4.90;99.90
39525;DHT22;25203;50.754;6.978;2023-01-16T10:43:09;4.90;99.90
39525;DHT22;25203;50.754;6.978;2023-01-16T10:45:34;5.00;99.90
39525;DHT22;25203;50.754;6.978;2023-01-16T10:47:53;5.10;99.90
39525;DHT22;25203;50.754;6.978;2023-01-16T10:50:14;5.10;99.90
39525;DHT22;25203;50.754;6.978;2023-01-16T10:52:14;5.20;99.90
39525;DHT22;25203;50.754;6.978;2023-01-16T10:54:15;5.10;99.90
39525;DHT22;25203;50.754;6.978;2023-01-16T10:56:16;5.10;99.90
39525;DHT22;25203;50.754;6.978;2023-01-16T10:58:34;5.10;99.90
39525;DHT22;25203;50.754;6.978;2023-01-16T11:00:39;5.10;99.90
39525;DHT22;25203;50.754;6.978;2023-01-16T11:02:43;5.10;99.90
39525;DHT22;25203;50.754;6.978;2023-01-16T11:04:45;5.20;99.90
39525;DHT22;25203;50.754;6.978;2023-01-16T11:06:46;5.20;99.90
39525;DHT22;25203;50.754;6.978;2023-01-16T11:09:00;5.30;99.90
39525;DHT22;25203;50.754;6.978;2023-01-16T11:11:01;5.30;99.90
39525;DHT22;25203;50.754;6.978;2023-01-16T11:13:02;5.40;99.90
39525;DHT22;25203;50.754;6.978;2023-01-16T11:15:23;5.40;99.90
39525;DHT22;25203;50.754;6.978;2023-01-16T11:17:51;5.60;99.90
39525;DHT22;25203;50.754;6.978;2023-01-16T11:20:31;6.00;99.90
39525;DHT22;25203;50.754;6.978;2023-01-16T11:22:37;6.20;99.90
39525;DHT22;25203;50.754;6.978;2023-01-16T11:24:39;6.20;99.90
39525;DHT22;25203;50.754;6.978;2023-01-16T11:26:52;6.00;99.90
39525;DHT22;25203;50.754;6.978;2023-01-16T11:28:54;5.90;99.90
39525;DHT22;25203;50.754;6.978;2023-01-16T11:31:13;6.00;99.90
39525;DHT22;25203;50.754;6.978;2023-01-16T11:33:18;6.30;99.90
39525;DHT22;25203;50.754;6.978;2023-01-16T11:35:20;6.30;99.90
39525;DHT22;25203;50.754;6.978;2023-01-16T11:37:27;6.30;99.90
39525;DHT22;25203;50.754;6.978;2023-01-16T11:39:31;6.50;99.90
39525;DHT22;25203;50.754;6.978;2023-01-16T11:41:35;6.40;99.90
39525;DHT22;25203;50.754;6.978;2023-01-16T11:43:37;6.30;99.90
39525;DHT22;25203;50.754;6.978;2023-01-16T11:45:56;6.10;99.90
39525;DHT22;25203;50.754;6.978;2023-01-16T11:48:06;5.90;99.90
39525;DHT22;25203;50.754;6.978;2023-01-16T11:50:34;5.80;99.90
39525;DHT22;25203;50.754;6.978;2023-01-16T11:52:36;5.60;99.90
39525;DHT22;25203;50.754;6.978;2023-01-16T11:54:37;5.50;99.90
39525;DHT22;25203;50.754;6.978;2023-01-16T12:02:13;5.40;99.90
39525;DHT22;25203;50.754;6.978;2023-01-16T12:04:19;5.40;99.90
39525;DHT22;25203;50.754;6.978;2023-01-16T12:06:46;5.20;99.90
39525;DHT22;25203;50.754;6.978;2023-01-16T12:14:39;4.80;99.90
39525;DHT22;25203;50.754;6.978;2023-01-16T12:17:09;4.80;99.90
39525;DHT22;25203;50.754;6.978;2023-01-16T12:24:53;4.80;99.90
39525;DHT22;25203;50.754;6.978;2023-01-16T12:34:43;5.20;99.90
39525;DHT22;25203;50.754;6.978;2023-01-16T12:39:44;5.20;99.90
39525;DHT22;25203;50.754;6.978;2023-01-16T12:41:51;5.20;99.90
39525;DHT22;25203;50.754;6.978;2023-01-16T12:44:27;5.20;99.90
39525;DHT22;25203;50.754;6.978;2023-01-16T12:49:38;5.10;99.90
39525;DHT22;25203;50.754;6.978;2023-01-16T12:51:47;5.00;99.90
39525;DHT22;25203;50.754;6.978;2023-01-16T12:58:15;5.10;99.90
39525;DHT22;25203;50.754;6.978;2023-01-16T13:00:25;5.00;99.90
39525;DHT22;25203;50.754;6.978;2023-01-16T13:04:38;5.00;99.90
39525;DHT22;25203;50.754;6.978;2023-01-16T13:06:47;5.00;99.90
39525;DHT22;25203;50.754;6.978;2023-01-16T13:08:51;5.10;99.90
39525;DHT22;25203;50.754;6.978;2023-01-16T13:11:05;5.10;99.90
39525;DHT22;25203;50.754;6.978;2023-01-16T13:13:29;5.10;99.90
39525;DHT22;25203;50.754;6.978;2023-01-16T13:15:33;5.00;99.90
39525;DHT22;25203;50.754;6.978;2023-01-16T13:19:54;5.10;99.90
39525;DHT22;25203;50.754;6.978;2023-01-16T13:22:18;5.10;99.90
39525;DHT22;25203;50.754;6.978;2023-01-16T13:24:30;5.10;99.90
39525;DHT22;25203;50.754;6.978;2023-01-16T13:26:32;5.00;99.90
39525;DHT22;25203;50.754;6.978;2023-01-16T13:28:43;5.00;99.90
39525;DHT22;25203;50.754;6.978;2023-01-16T13:30:46;4.90;99.90
39525;DHT22;25203;50.754;6.978;2023-01-16T13:32:57;4.90;99.90
39525;DHT22;25203;50.754;6.978;2023-01-16T13:35:26;4.90;99.90
39525;DHT22;25203;50.754;6.978;2023-01-16T13:37:31;4.90;99.90
39525;DHT22;25203;50.754;6.978;2023-01-16T13:41:50;5.00;99.90
39525;DHT22;25203;50.754;6.978;2023-01-16T13:43:54;5.00;99.90
39525;DHT22;25203;50.754;6.978;2023-01-16T13:46:15;5.00;99.90
39525;DHT22;25203;50.754;6.978;2023-01-16T13:48:22;5.00;99.90
39525;DHT22;25203;50.754;6.978;2023-01-16T13:50:28;5.10;99.90
39525;DHT22;25203;50.754;6.978;2023-01-16T13:52:30;5.10;99.90
39525;DHT22;25203;50.754;6.978;2023-01-16T13:55:04;5.10;99.90
39525;DHT22;25203;50.754;6.978;2023-01-16T13:57:03;5.20;99.90
39525;DHT22;25203;50.754;6.978;2023-01-16T13:59:13;5.20;99.90
39525;DHT22;25203;50.754;6.978;2023-01-16T14:04:26;5.30;99.90
39525;DHT22;25203;50.754;6.978;2023-01-16T14:06:27;5.30;99.90
39525;DHT22;25203;50.754;6.978;2023-01-16T14:08:51;5.40;99.90
39525;DHT22;25203;50.754;6.978;2023-01-16T14:11:40;5.40;99.90
39525;DHT22;25203;50.754;6.978;2023-01-16T14:17:00;5.40;99.90
39525;DHT22;25203;50.754;6.978;2023-01-16T14:21:04;5.40;99.90
39525;DHT22;25203;50.754;6.978;2023-01-16T14:23:22;5.50;99.90
39525;DHT22;25203;50.754;6.978;2023-01-16T14:25:42;5.50;99.90
39525;DHT22;25203;50.754;6.978;2023-01-16T14:27:43;5.50;99.90
39525;DHT22;25203;50.754;6.978;2023-01-16T14:29:56;5.50;99.90
39525;DHT22;25203;50.754;6.978;2023-01-16T14:32:02;5.50;99.90
39525;DHT22;25203;50.754;6.978;2023-01-16T14:34:03;5.50;99.90
39525;DHT22;25203;50.754;6.978;2023-01-16T14:36:04;5.60;99.90
39525;DHT22;25203;50.754;6.978;2023-01-16T14:38:09;5.50;99.90
39525;DHT22;25203;50.754;6.978;2023-01-16T14:40:21;5.50;99.90
39525;DHT22;25203;50.754;6.978;2023-01-16T14:42:33;5.60;99.90
39525;DHT22;25203;50.754;6.978;2023-01-16T14:47:28;5.50;99.90
39525;DHT22;25203;50.754;6.978;2023-01-16T14:52:10;5.40;99.90
39525;DHT22;25203;50.754;6.978;2023-01-16T14:54:31;5.30;99.90
39525;DHT22;25203;50.754;6.978;2023-01-16T15:01:03;5.30;99.90
39525;DHT22;25203;50.754;6.978;2023-01-16T15:03:33;5.30;99.90
39525;DHT22;25203;50.754;6.978;2023-01-16T15:05:52;5.30;99.90
39525;DHT22;25203;50.754;6.978;2023-01-16T15:07:56;5.30;99.90
39525;DHT22;25203;50.754;6.978;2023-01-16T15:10:04;5.30;99.90
39525;DHT22;25203;50.754;6.978;2023-01-16T15:12:13;5.40;99.90
39525;DHT22;25203;50.754;6.978;2023-01-16T15:14:16;5.40;99.90
39525;DHT22;25203;50.754;6.978;2023-01-16T15:16:27;5.30;99.90
39525;DHT22;25203;50.754;6.978;2023-01-16T15:18:46;5.30;99.90
39525;DHT22;25203;50.754;6.978;2023-01-16T15:21:25;5.30;99.90
39525;DHT22;25203;50.754;6.978;2023-01-16T15:23:44;5.40;99.90
39525;DHT22;25203;50.754;6.978;2023-01-16T15:28:18;5.40;99.90
39525;DHT22;25203;50.754;6.978;2023-01-16T15:30:21;5.40;99.90
39525;DHT22;25203;50.754;6.978;2023-01-16T15:32:22;5.40;99.90
39525;DHT22;25203;50.754;6.978;2023-01-16T15:34:25;5.40;99.90